Time;durP1;ratioP1;P1;durP2;ratioP2;P2;SDS_P1;SDS_P2;PMS_P1;PMS_P2;Temp;Humidity;BMP_temperature;BMP_pressure;BME280_temperature;BME280_humidity;BME280_pressure;Samples;Min_cycle;Max_cycle;Signal;HPM_P1;HPM_P2
2023/11/22 00:05:00;;;;;;;13.95;8.25;;;;;;;;;;10519580;28;20777;-83
2023/11/22 00:10:04;;;;;;;10.80;8.18;;;;;;;;;;10518271;28;20457;-83
2023/11/22 00:15:09;;;;;;;13.33;8.33;;;;;;;;;;10511364;28;20403;-84
2023/11/22 00:20:13;;;;;;;11.55;7.57;;;;;;;;;;10515154;28;20403;-83
2023/11/22 00:25:16;;;;;;;10.90;7.93;;;;;;;;;;10506705;28;20456;-83
2023/11/22 00:30:18;;;;;;;10.15;7.80;;;;;;;;;;10510470;28;20418;-83
2023/11/22 00:35:23;;;;;;;9.32;7.15;;;;;;;;;;10508566;28;20402;-82
2023/11/22 00:40:25;;;;;;;11.20;7.00;;;;;;;;;;10504084;28;20398;-83
2023/11/22 00:45:27;;;;;;;11.35;7.80;;;;;;;;;;10524907;28;20523;-83
2023/11/22 00:50:31;;;;;;;9.95;7.53;;;;;;;;;;10507888;28;20456;-83
2023/11/22 00:55:34;;;;;;;12.40;7.40;;;;;;;;;;10509392;28;20402;-84
2023/11/22 01:00:36;;;;;;;9.90;7.45;;;;;;;;;;10515947;28;20412;-84
2023/11/22 01:05:40;;;;;;;12.82;7.57;;;;;;;;;;10507991;28;20460;-82
2023/11/22 01:10:42;;;;;;;11.73;7.18;;;;;;;;;;10509311;28;20514;-84
2023/11/22 01:15:45;;;;;;;11.32;7.15;;;;;;;;;;10509264;28;20491;-83
2023/11/22 01:20:50;;;;;;;12.07;7.15;;;;;;;;;;10502471;28;20406;-83
2023/11/22 01:25:53;;;;;;;12.47;7.43;;;;;;;;;;10503567;28;20527;-83
2023/11/22 01:30:56;;;;;;;9.40;6.93;;;;;;;;;;10508553;28;21740;-83
2023/11/22 01:36:00;;;;;;;11.80;6.95;;;;;;;;;;10508569;28;20408;-83
2023/11/22 01:41:02;;;;;;;10.48;7.20;;;;;;;;;;10504101;28;20464;-83
2023/11/22 01:46:05;;;;;;;9.13;6.80;;;;;;;;;;10511700;28;20402;-84
2023/11/22 01:51:09;;;;;;;10.43;7.30;;;;;;;;;;10522576;28;20422;-82
2023/11/22 01:56:11;;;;;;;9.70;6.30;;;;;;;;;;10519438;28;20447;-83
2023/11/22 02:01:14;;;;;;;13.27;7.40;;;;;;;;;;10500035;28;20457;-82
2023/11/22 02:06:18;;;;;;;9.98;6.45;;;;;;;;;;10513569;28;20471;-83
2023/11/22 02:11:22;;;;;;;9.98;6.45;;;;;;;;;;10511978;28;20499;-83
2023/11/22 02:16:24;;;;;;;10.30;6.33;;;;;;;;;;10511115;28;20459;-83
2023/11/22 02:21:28;;;;;;;9.23;6.45;;;;;;;;;;10511244;28;20408;-83
2023/11/22 02:26:32;;;;;;;10.27;6.90;;;;;;;;;;10515509;28;20394;-83
2023/11/22 02:31:35;;;;;;;9.75;6.32;;;;;;;;;;10505091;28;20515;-83
2023/11/22 02:36:37;;;;;;;12.27;7.40;;;;;;;;;;10511952;28;20401;-83
2023/11/22 02:41:41;;;;;;;11.10;7.27;;;;;;;;;;10509585;28;20407;-83
2023/11/22 02:46:43;;;;;;;10.27;6.88;;;;;;;;;;10514832;28;20396;-84
2023/11/22 02:51:46;;;;;;;9.73;7.00;;;;;;;;;;10512385;28;20513;-83
2023/11/22 02:56:50;;;;;;;12.65;7.03;;;;;;;;;;10507523;28;20445;-84
2023/11/22 03:01:52;;;;;;;8.75;6.10;;;;;;;;;;10507099;28;20511;-83
2023/11/22 03:06:55;;;;;;;8.73;6.17;;;;;;;;;;10511790;28;20439;-83
2023/11/22 03:11:59;;;;;;;8.80;5.93;;;;;;;;;;10519057;28;20425;-83
2023/11/22 03:17:03;;;;;;;9.43;6.20;;;;;;;;;;10515566;28;20440;-83
2023/11/22 03:22:06;;;;;;;8.60;6.10;;;;;;;;;;10512354;28;20440;-83
2023/11/22 03:27:10;;;;;;;8.80;5.73;;;;;;;;;;10532282;28;20412;-83
2023/11/22 03:32:13;;;;;;;8.65;5.90;;;;;;;;;;10506713;28;20450;-83
2023/11/22 03:37:15;;;;;;;9.55;6.32;;;;;;;;;;10508913;28;20394;-83
2023/11/22 03:42:19;;;;;;;9.77;6.27;;;;;;;;;;10515529;28;20469;-82
2023/11/22 03:47:22;;;;;;;9.77;6.28;;;;;;;;;;10517676;28;20797;-83
2023/11/22 03:52:24;;;;;;;9.10;5.65;;;;;;;;;;10512186;28;20449;-83
2023/11/22 03:57:28;;;;;;;9.18;6.32;;;;;;;;;;10520198;28;20452;-83
2023/11/22 04:02:30;;;;;;;6.95;5.32;;;;;;;;;;10522518;28;20436;-82
2023/11/22 04:07:33;;;;;;;7.82;5.45;;;;;;;;;;10514640;28;20411;-83
2023/11/22 04:12:37;;;;;;;7.28;5.03;;;;;;;;;;10510650;28;20525;-84
2023/11/22 04:17:39;;;;;;;6.85;4.82;;;;;;;;;;10508411;28;20521;-83
2023/11/22 04:22:42;;;;;;;6.75;5.00;;;;;;;;;;10525156;28;20822;-83
2023/11/22 04:27:46;;;;;;;6.75;4.80;;;;;;;;;;10504222;28;20410;-83
2023/11/22 04:32:49;;;;;;;7.93;5.22;;;;;;;;;;10515906;28;20497;-83
2023/11/22 04:37:51;;;;;;;6.40;4.47;;;;;;;;;;10517735;28;20435;-84
2023/11/22 04:42:55;;;;;;;8.18;4.70;;;;;;;;;;10502681;28;21141;-83
2023/11/22 04:47:58;;;;;;;7.55;5.00;;;;;;;;;;10508742;28;20928;-83
2023/11/22 04:53:01;;;;;;;7.95;4.78;;;;;;;;;;10506716;28;20488;-83
2023/11/22 04:58:05;;;;;;;7.70;5.32;;;;;;;;;;10515392;28;21230;-83
2023/11/22 05:03:07;;;;;;;6.77;4.80;;;;;;;;;;10515165;28;20455;-83
2023/11/22 05:08:10;;;;;;;5.68;4.30;;;;;;;;;;10513263;28;20408;-83
2023/11/22 05:13:14;;;;;;;6.17;4.27;;;;;;;;;;10504672;28;20553;-83
2023/11/22 05:18:16;;;;;;;5.80;3.90;;;;;;;;;;10507278;28;20825;-82
2023/11/22 05:23:18;;;;;;;6.65;4.22;;;;;;;;;;10505531;28;20891;-83
2023/11/22 05:28:23;;;;;;;7.57;4.10;;;;;;;;;;10508067;28;20479;-83
2023/11/22 05:33:25;;;;;;;5.88;4.05;;;;;;;;;;10510886;28;20847;-83
2023/11/22 05:38:27;;;;;;;6.30;4.18;;;;;;;;;;10519326;28;20479;-83
2023/11/22 05:43:31;;;;;;;7.57;4.50;;;;;;;;;;10505911;28;20474;-84
2023/11/22 05:48:34;;;;;;;4.80;4.03;;;;;;;;;;10504109;28;20997;-84
2023/11/22 05:53:36;;;;;;;8.27;4.43;;;;;;;;;;10504192;28;20523;-83
2023/11/22 05:58:40;;;;;;;6.70;4.65;;;;;;;;;;10505975;28;20485;-83
2023/11/22 06:03:43;;;;;;;6.82;4.10;;;;;;;;;;10504166;28;20402;-83
2023/11/22 06:08:45;;;;;;;6.82;4.72;;;;;;;;;;10503513;28;20451;-83
2023/11/22 06:13:49;;;;;;;6.40;4.50;;;;;;;;;;10507586;28;20506;-81
2023/11/22 06:18:51;;;;;;;7.23;5.30;;;;;;;;;;10506975;28;20407;-83
2023/11/22 06:23:55;;;;;;;7.03;5.60;;;;;;;;;;10495191;28;20464;-82
2023/11/22 06:28:59;;;;;;;9.27;5.63;;;;;;;;;;10500063;28;20437;-84
2023/11/22 06:34:02;;;;;;;8.02;5.57;;;;;;;;;;10508449;28;20906;-84
2023/11/22 06:39:05;;;;;;;9.60;6.35;;;;;;;;;;10504662;28;20398;-83
2023/11/22 06:44:10;;;;;;;8.67;5.87;;;;;;;;;;10492355;28;20448;-82
2023/11/22 06:49:15;;;;;;;9.57;5.97;;;;;;;;;;10494821;28;20457;-85
2023/11/22 06:54:19;;;;;;;14.15;8.57;;;;;;;;;;10502650;28;20492;-82
2023/11/22 06:59:23;;;;;;;9.43;6.22;;;;;;;;;;10502265;28;20470;-82
2023/11/22 07:04:26;;;;;;;10.10;6.07;;;;;;;;;;10505001;28;20444;-83
2023/11/22 07:09:28;;;;;;;12.23;7.13;;;;;;;;;;10500721;28;20437;-83
2023/11/22 07:14:32;;;;;;;14.77;8.57;;;;;;;;;;10494727;28;20905;-83
2023/11/22 07:19:37;;;;;;;14.20;8.73;;;;;;;;;;10502691;28;20447;-82
2023/11/22 07:24:42;;;;;;;11.20;6.60;;;;;;;;;;10502946;28;20504;-82
2023/11/22 07:29:46;;;;;;;13.82;7.15;;;;;;;;;;10502676;28;20494;-82
2023/11/22 07:34:49;;;;;;;11.60;7.40;;;;;;;;;;10516927;28;20590;-82
2023/11/22 07:39:53;;;;;;;11.95;7.03;;;;;;;;;;10505700;28;20476;-84
2023/11/22 07:44:57;;;;;;;12.05;7.38;;;;;;;;;;10502622;28;20439;-83
2023/11/22 07:50:01;;;;;;;13.13;6.93;;;;;;;;;;10502906;28;20404;-83
2023/11/22 07:55:05;;;;;;;13.38;7.25;;;;;;;;;;10511913;28;20507;-83
2023/11/22 08:00:11;;;;;;;10.83;6.77;;;;;;;;;;10529912;28;20952;-85
2023/11/22 08:05:15;;;;;;;12.85;6.80;;;;;;;;;;10518498;28;20874;-84
2023/11/22 08:10:18;;;;;;;10.82;6.88;;;;;;;;;;10531188;28;20493;-85
2023/11/22 08:15:22;;;;;;;13.63;7.88;;;;;;;;;;10544268;28;20417;-85
2023/11/22 08:20:25;;;;;;;15.18;8.18;;;;;;;;;;10521074;28;20409;-85
2023/11/22 08:25:27;;;;;;;13.20;7.65;;;;;;;;;;10531555;28;20452;-84
2023/11/22 08:30:35;;;;;;;12.00;7.28;;;;;;;;;;10524049;28;20402;-85
2023/11/22 08:35:37;;;;;;;11.82;7.45;;;;;;;;;;10515715;28;20424;-85
2023/11/22 08:40:40;;;;;;;11.43;7.40;;;;;;;;;;10525025;28;20400;-85
2023/11/22 08:45:44;;;;;;;18.50;8.40;;;;;;;;;;10508849;28;20776;-86
2023/11/22 08:50:47;;;;;;;15.45;7.68;;;;;;;;;;10510718;28;20408;-84
2023/11/22 08:55:50;;;;;;;11.60;7.05;;;;;;;;;;10510805;28;20457;-85
2023/11/22 09:00:57;;;;;;;11.83;6.70;;;;;;;;;;10517051;28;20426;-85
2023/11/22 09:06:00;;;;;;;13.20;7.20;;;;;;;;;;10517832;28;20881;-84
2023/11/22 09:11:05;;;;;;;14.07;6.78;;;;;;;;;;10517838;28;20418;-84
2023/11/22 09:16:10;;;;;;;10.48;6.88;;;;;;;;;;10521407;23;20499;-81
2023/11/22 09:21:12;;;;;;;9.90;6.57;;;;;;;;;;10506005;28;20431;-81
2023/11/22 09:26:15;;;;;;;10.27;6.83;;;;;;;;;;10507253;28;20761;-81
2023/11/22 09:31:20;;;;;;;10.15;7.40;;;;;;;;;;10510061;28;20406;-81
2023/11/22 09:36:24;;;;;;;11.10;7.10;;;;;;;;;;10502429;28;20535;-81
2023/11/22 09:41:27;;;;;;;11.05;7.43;;;;;;;;;;10509908;28;20438;-81
2023/11/22 09:46:34;;;;;;;8.40;5.80;;;;;;;;;;10495134;28;21665;-81
2023/11/22 09:51:38;;;;;;;8.27;5.50;;;;;;;;;;10498948;28;20640;-81
2023/11/22 09:56:50;;;;;;;9.13;5.72;;;;;;;;;;10515192;28;20836;-81
2023/11/22 10:01:54;;;;;;;6.05;4.18;;;;;;;;;;10496915;28;20430;-81
2023/11/22 10:06:59;;;;;;;2.00;1.10;;;;;;;;;;10501633;28;20410;-81
2023/11/22 10:12:03;;;;;;;2.22;1.70;;;;;;;;;;10502905;28;21230;-81
2023/11/22 10:17:08;;;;;;;2.10;0.90;;;;;;;;;;10499146;28;20410;-81
2023/11/22 10:22:15;;;;;;;1.50;1.40;;;;;;;;;;10498730;28;20406;-81
2023/11/22 10:27:19;;;;;;;3.30;2.00;;;;;;;;;;10503750;28;20402;-81
2023/11/22 10:32:23;;;;;;;2.63;2.23;;;;;;;;;;10508820;28;20473;-81
2023/11/22 10:37:26;;;;;;;3.65;2.72;;;;;;;;;;10510255;28;20406;-80
2023/11/22 10:42:28;;;;;;;4.55;3.05;;;;;;;;;;10507203;28;20410;-80
2023/11/22 10:47:33;;;;;;;4.90;2.90;;;;;;;;;;10510080;28;20500;-80
2023/11/22 10:52:36;;;;;;;8.13;5.67;;;;;;;;;;10499565;28;20515;-80
2023/11/22 10:57:47;;;;;;;29.43;18.80;;;;;;;;;;10508609;28;20418;-81
2023/11/22 11:02:56;;;;;;;5.10;3.83;;;;;;;;;;10505820;28;20400;-81
2023/11/22 11:08:06;;;;;;;2.80;1.60;;;;;;;;;;10508577;28;20831;-81
2023/11/22 11:13:09;;;;;;;2.47;2.27;;;;;;;;;;10508726;28;20541;-81
2023/11/22 11:18:16;;;;;;;2.45;1.50;;;;;;;;;;10502438;28;20451;-81
2023/11/22 11:23:20;;;;;;;2.10;1.50;;;;;;;;;;10505087;28;20410;-81
2023/11/22 11:28:25;;;;;;;1.50;1.10;;;;;;;;;;10517223;28;20420;-81
2023/11/22 11:33:34;;;;;;;1.13;1.02;;;;;;;;;;10513901;28;20800;-82
2023/11/22 11:38:36;;;;;;;1.50;1.10;;;;;;;;;;10505186;28;20414;-82
2023/11/22 11:43:43;;;;;;;3.60;1.98;;;;;;;;;;10517535;28;20408;-81
2023/11/22 11:48:50;;;;;;;1.85;1.40;;;;;;;;;;10513409;28;20404;-81
2023/11/22 11:53:53;;;;;;;1.65;1.23;;;;;;;;;;10504390;28;20453;-81
2023/11/22 11:58:59;;;;;;;5.35;4.85;;;;;;;;;;10515647;28;20782;-81
2023/11/22 12:04:03;;;;;;;2.42;1.48;;;;;;;;;;10506558;28;20449;-81
2023/11/22 12:09:06;;;;;;;1.97;0.90;;;;;;;;;;10484867;28;20762;-82
2023/11/22 12:14:09;;;;;;;1.60;1.20;;;;;;;;;;10487063;28;20522;-82
2023/11/22 12:19:13;;;;;;;1.73;1.10;;;;;;;;;;10502965;28;20398;-82
2023/11/22 12:24:16;;;;;;;2.10;1.23;;;;;;;;;;10514232;28;20466;-80
2023/11/22 12:29:19;;;;;;;1.17;1.00;;;;;;;;;;10506702;28;20468;-80
2023/11/22 12:34:24;;;;;;;3.20;2.47;;;;;;;;;;10494658;28;20449;-81
2023/11/22 12:39:27;;;;;;;2.40;1.77;;;;;;;;;;10512290;28;20440;-81
2023/11/22 12:44:32;;;;;;;1.30;0.90;;;;;;;;;;10509454;28;20461;-81
2023/11/22 12:49:45;;;;;;;1.27;0.95;;;;;;;;;;10507938;28;20492;-81
2023/11/22 12:54:47;;;;;;;1.85;1.10;;;;;;;;;;10506653;28;20452;-81
2023/11/22 12:59:50;;;;;;;1.27;1.10;;;;;;;;;;10503115;28;20432;-81
2023/11/22 13:04:53;;;;;;;2.35;1.20;;;;;;;;;;10495778;28;20508;-80
2023/11/22 13:09:56;;;;;;;2.05;1.10;;;;;;;;;;10508393;28;20507;-81
2023/11/22 13:14:58;;;;;;;1.52;1.00;;;;;;;;;;10505373;28;20453;-80
2023/11/22 13:20:02;;;;;;;2.90;1.38;;;;;;;;;;10506273;28;20475;-80
2023/11/22 13:25:06;;;;;;;1.58;1.10;;;;;;;;;;10503715;28;20491;-80
2023/11/22 13:30:08;;;;;;;2.03;1.27;;;;;;;;;;10495725;28;20769;-81
2023/11/22 13:35:15;;;;;;;2.25;1.42;;;;;;;;;;10495791;28;20510;-81
2023/11/22 13:40:21;;;;;;;3.42;1.50;;;;;;;;;;10498100;28;20410;-81
2023/11/22 13:45:25;;;;;;;1.30;1.20;;;;;;;;;;10497138;28;20410;-81
2023/11/22 13:50:29;;;;;;;2.85;1.85;;;;;;;;;;10490649;28;20471;-81
2023/11/22 13:55:32;;;;;;;3.43;2.00;;;;;;;;;;10500892;28;20491;-81
2023/11/22 14:00:34;;;;;;;1.70;1.40;;;;;;;;;;10490486;28;20409;-81
2023/11/22 14:05:39;;;;;;;2.63;1.50;;;;;;;;;;10495443;28;20434;-81
2023/11/22 14:10:41;;;;;;;2.13;1.15;;;;;;;;;;10492544;28;20421;-81
2023/11/22 14:15:44;;;;;;;3.15;2.20;;;;;;;;;;10406260;28;2410912;-79
2023/11/22 14:20:48;;;;;;;10.52;5.72;;;;;;;;;;10495111;28;20418;-80
2023/11/22 14:25:50;;;;;;;2.67;2.35;;;;;;;;;;10490123;28;20472;-80
2023/11/22 14:30:54;;;;;;;4.90;2.80;;;;;;;;;;10488220;28;20909;-79
2023/11/22 14:35:58;;;;;;;2.40;1.95;;;;;;;;;;10496135;28;20457;-79
2023/11/22 14:41:01;;;;;;;2.88;2.20;;;;;;;;;;10492201;28;20438;-79
2023/11/22 14:46:05;;;;;;;2.30;1.90;;;;;;;;;;10490261;28;20983;-80
2023/11/22 14:51:10;;;;;;;5.28;1.90;;;;;;;;;;10488429;28;20487;-79
2023/11/22 14:56:12;;;;;;;4.20;2.83;;;;;;;;;;10491285;28;20461;-80
2023/11/22 15:01:15;;;;;;;4.47;3.30;;;;;;;;;;10486940;28;20445;-80
2023/11/22 15:06:19;;;;;;;5.53;3.15;;;;;;;;;;10489190;28;20441;-80
2023/11/22 15:11:21;;;;;;;4.43;3.20;;;;;;;;;;10498158;28;20408;-79
2023/11/22 15:16:23;;;;;;;5.05;3.28;;;;;;;;;;10504271;28;20504;-80
2023/11/22 15:21:27;;;;;;;6.73;3.23;;;;;;;;;;10492403;28;20441;-80
2023/11/22 15:26:29;;;;;;;5.22;3.30;;;;;;;;;;10499352;28;20476;-79
2023/11/22 15:31:32;;;;;;;16.87;4.40;;;;;;;;;;10503091;28;20431;-79
2023/11/22 15:36:35;;;;;;;11.43;3.40;;;;;;;;;;10492567;28;20507;-80
2023/11/22 15:41:38;;;;;;;16.27;4.22;;;;;;;;;;10494472;28;20450;-80
2023/11/22 15:46:42;;;;;;;18.83;7.97;;;;;;;;;;10494835;28;20431;-79
2023/11/22 15:51:45;;;;;;;24.67;10.15;;;;;;;;;;10491007;28;20925;-79
2023/11/22 15:56:48;;;;;;;14.07;4.43;;;;;;;;;;10500560;28;20449;-80
2023/11/22 16:01:50;;;;;;;19.98;5.25;;;;;;;;;;10489863;28;20493;-80
2023/11/22 16:06:54;;;;;;;11.07;4.15;;;;;;;;;;10489101;28;21079;-80
2023/11/22 16:11:57;;;;;;;11.98;4.35;;;;;;;;;;10496772;28;20469;-80
2023/11/22 16:16:59;;;;;;;15.38;4.88;;;;;;;;;;10498317;28;20442;-80
2023/11/22 16:22:03;;;;;;;16.40;4.22;;;;;;;;;;10497556;28;20434;-79
2023/11/22 16:27:06;;;;;;;13.52;3.88;;;;;;;;;;10507145;28;20804;-79
2023/11/22 16:32:08;;;;;;;11.10;3.75;;;;;;;;;;10482987;28;20469;-79
2023/11/22 16:37:12;;;;;;;8.17;3.77;;;;;;;;;;10505466;28;21029;-79
2023/11/22 16:42:18;;;;;;;9.88;4.10;;;;;;;;;;10504693;28;20501;-79
2023/11/22 16:47:21;;;;;;;17.77;6.50;;;;;;;;;;10495832;28;20433;-81
2023/11/22 16:52:26;;;;;;;17.00;4.60;;;;;;;;;;10498479;28;20516;-79
2023/11/22 16:57:28;;;;;;;15.73;5.70;;;;;;;;;;10501636;28;20891;-79
2023/11/22 17:02:31;;;;;;;15.90;5.72;;;;;;;;;;10502622;28;20487;-78
2023/11/22 17:07:35;;;;;;;10.70;5.60;;;;;;;;;;10503098;28;20481;-79
2023/11/22 17:12:37;;;;;;;16.70;6.32;;;;;;;;;;10497152;28;20937;-79
2023/11/22 17:17:40;;;;;;;12.85;5.90;;;;;;;;;;10496614;28;20526;-80
2023/11/22 17:22:44;;;;;;;9.90;6.47;;;;;;;;;;10502612;28;20424;-81
2023/11/22 17:27:47;;;;;;;40.15;20.65;;;;;;;;;;10498402;28;20507;-83
2023/11/22 17:32:49;;;;;;;27.83;14.27;;;;;;;;;;10499664;28;20467;-81
2023/11/22 17:37:54;;;;;;;23.23;14.27;;;;;;;;;;10500790;28;20448;-81
2023/11/22 17:43:00;;;;;;;22.38;12.63;;;;;;;;;;10500899;28;20460;-81
2023/11/22 17:48:03;;;;;;;20.40;12.63;;;;;;;;;;10493464;28;20443;-81
2023/11/22 17:53:07;;;;;;;20.80;12.25;;;;;;;;;;10501931;28;20510;-81
2023/11/22 17:58:09;;;;;;;24.05;13.90;;;;;;;;;;10507074;28;20448;-79
2023/11/22 18:03:11;;;;;;;21.33;12.43;;;;;;;;;;10492549;28;20436;-80
2023/11/22 18:08:18;;;;;;;24.87;12.80;;;;;;;;;;10498552;28;20478;-80
2023/11/22 18:13:21;;;;;;;22.67;13.68;;;;;;;;;;10499939;28;20456;-80
2023/11/22 18:18:23;;;;;;;38.63;16.42;;;;;;;;;;10497856;28;20893;-79
2023/11/22 18:23:28;;;;;;;28.52;16.85;;;;;;;;;;10492421;28;20433;-79
2023/11/22 18:28:30;;;;;;;41.65;23.75;;;;;;;;;;10491722;28;20495;-80
2023/11/22 18:33:33;;;;;;;42.03;24.58;;;;;;;;;;10497605;28;20453;-80
2023/11/22 18:38:36;;;;;;;69.00;37.40;;;;;;;;;;10504008;28;20509;-79
2023/11/22 18:43:39;;;;;;;35.53;20.83;;;;;;;;;;10510154;28;20967;-80
2023/11/22 18:48:41;;;;;;;31.95;19.65;;;;;;;;;;10497248;28;20507;-79
2023/11/22 18:53:45;;;;;;;41.85;24.17;;;;;;;;;;10494877;28;20910;-79
2023/11/22 18:58:47;;;;;;;31.50;17.40;;;;;;;;;;10507514;28;20453;-79
2023/11/22 19:03:50;;;;;;;28.57;18.27;;;;;;;;;;10506911;28;20444;-79
2023/11/22 19:08:54;;;;;;;25.55;16.85;;;;;;;;;;10500538;28;20505;-81
2023/11/22 19:13:56;;;;;;;30.02;17.75;;;;;;;;;;10507610;28;20509;-81
2023/11/22 19:18:59;;;;;;;48.13;28.30;;;;;;;;;;10502294;28;20440;-81
2023/11/22 19:24:04;;;;;;;40.30;23.00;;;;;;;;;;10497150;28;20510;-82
2023/11/22 19:29:06;;;;;;;45.15;25.45;;;;;;;;;;10500047;28;20440;-82
2023/11/22 19:34:09;;;;;;;42.05;24.83;;;;;;;;;;10468337;28;20453;-81
2023/11/22 19:39:13;;;;;;;49.63;27.48;;;;;;;;;;10491310;28;20524;-82
2023/11/22 19:44:17;;;;;;;46.73;27.00;;;;;;;;;;10492915;28;20454;-81
2023/11/22 19:49:19;;;;;;;43.20;23.83;;;;;;;;;;10496624;28;20450;-81
2023/11/22 19:54:23;;;;;;;35.75;22.63;;;;;;;;;;10500384;28;20503;-81
2023/11/22 19:59:25;;;;;;;30.73;17.50;;;;;;;;;;10504380;28;20510;-80
2023/11/22 20:04:28;;;;;;;32.85;19.48;;;;;;;;;;10494265;28;20445;-80
2023/11/22 20:09:31;;;;;;;32.70;18.52;;;;;;;;;;10495497;28;20520;-80
2023/11/22 20:14:34;;;;;;;29.48;17.85;;;;;;;;;;10496100;28;20502;-80
2023/11/22 20:19:36;;;;;;;32.20;18.33;;;;;;;;;;10501991;28;20512;-81
2023/11/22 20:24:40;;;;;;;28.75;19.45;;;;;;;;;;10493539;28;20474;-81
2023/11/22 20:29:42;;;;;;;30.35;17.30;;;;;;;;;;10491493;28;20974;-79
2023/11/22 20:34:45;;;;;;;27.23;16.45;;;;;;;;;;10494351;28;20438;-81
2023/11/22 20:39:48;;;;;;;24.58;15.18;;;;;;;;;;10502946;28;20511;-80
2023/11/22 20:44:51;;;;;;;25.60;15.73;;;;;;;;;;10493751;28;20457;-82
2023/11/22 20:49:53;;;;;;;25.90;15.77;;;;;;;;;;10496046;28;20986;-79
2023/11/22 20:54:57;;;;;;;25.33;15.77;;;;;;;;;;10494555;28;20985;-79
2023/11/22 20:59:59;;;;;;;24.03;16.03;;;;;;;;;;10493020;28;20448;-78
2023/11/22 21:05:02;;;;;;;29.00;16.10;;;;;;;;;;10497922;28;20475;-79
2023/11/22 21:10:07;;;;;;;26.50;16.27;;;;;;;;;;10503631;28;20506;-78
2023/11/22 21:15:12;;;;;;;28.23;16.20;;;;;;;;;;10507236;28;20470;-79
2023/11/22 21:20:15;;;;;;;25.33;14.50;;;;;;;;;;10504548;28;20440;-79
2023/11/22 21:25:19;;;;;;;24.70;13.55;;;;;;;;;;10505618;28;20474;-80
2023/11/22 21:30:21;;;;;;;19.85;12.80;;;;;;;;;;10495499;28;20995;-81
2023/11/22 21:35:23;;;;;;;22.87;13.97;;;;;;;;;;10507541;28;20521;-80
2023/11/22 21:40:27;;;;;;;24.80;15.27;;;;;;;;;;10504849;28;20440;-81
2023/11/22 21:45:29;;;;;;;32.92;18.77;;;;;;;;;;10494951;28;20445;-81
2023/11/22 21:50:32;;;;;;;28.97;17.57;;;;;;;;;;10491933;28;20489;-81
2023/11/22 21:55:37;;;;;;;27.87;17.20;;;;;;;;;;10508168;28;20452;-81
2023/11/22 22:00:39;;;;;;;27.43;16.20;;;;;;;;;;10497306;28;20462;-81
2023/11/22 22:05:44;;;;;;;26.23;15.75;;;;;;;;;;10502748;28;20507;-81
2023/11/22 22:10:48;;;;;;;26.67;16.45;;;;;;;;;;10484304;28;20487;-82
2023/11/22 22:15:51;;;;;;;25.37;15.93;;;;;;;;;;10483450;28;20445;-81
2023/11/22 22:20:53;;;;;;;31.40;18.27;;;;;;;;;;10486010;28;20440;-81
2023/11/22 22:25:57;;;;;;;24.83;14.75;;;;;;;;;;10498446;28;20905;-82
2023/11/22 22:30:59;;;;;;;21.63;13.27;;;;;;;;;;10489112;28;21004;-82
2023/11/22 22:36:01;;;;;;;20.70;12.27;;;;;;;;;;10500937;28;20498;-81
2023/11/22 22:41:06;;;;;;;20.38;12.57;;;;;;;;;;10490276;28;20586;-81
2023/11/22 22:46:08;;;;;;;18.90;12.43;;;;;;;;;;10484700;28;20453;-82
2023/11/22 22:51:12;;;;;;;23.88;14.07;;;;;;;;;;10489675;28;20809;-81
2023/11/22 22:56:18;;;;;;;22.60;13.13;;;;;;;;;;10493478;28;20457;-82
2023/11/22 23:01:21;;;;;;;33.75;16.88;;;;;;;;;;10490460;28;20462;-81
2023/11/22 23:06:26;;;;;;;26.27;14.30;;;;;;;;;;10488254;28;20473;-81
2023/11/22 23:11:30;;;;;;;24.10;12.90;;;;;;;;;;10487928;28;20497;-80
2023/11/22 23:16:32;;;;;;;17.00;10.27;;;;;;;;;;10487013;28;20961;-81
2023/11/22 23:21:35;;;;;;;21.80;10.70;;;;;;;;;;10490150;28;20459;-81
2023/11/22 23:26:39;;;;;;;17.73;10.77;;;;;;;;;;10501837;28;20401;-81
2023/11/22 23:31:41;;;;;;;16.77;10.52;;;;;;;;;;10502938;28;20437;-82
2023/11/22 23:36:44;;;;;;;17.02;10.57;;;;;;;;;;10500770;28;20518;-82
2023/11/22 23:41:49;;;;;;;15.73;10.10;;;;;;;;;;10483867;28;20887;-81
2023/11/22 23:46:51;;;;;;;16.60;9.98;;;;;;;;;;10501774;28;20419;-81
2023/11/22 23:51:53;;;;;;;16.87;10.10;;;;;;;;;;10504760;28;20413;-82
2023/11/22 23:56:57;;;;;;;14.63;9.93;;;;;;;;;;10502033;28;20518;-81
